createdAt,value
2017-10-27T00:00:52.163Z,0.00
2017-10-27T00:02:13.218Z,0.00
2017-10-27T00:02:52.230Z,0.00
2017-10-27T00:03:52.270Z,0.00
2017-10-27T00:04:52.302Z,0.00
2017-10-27T00:05:52.339Z,0.00
2017-10-27T00:06:52.382Z,0.00
2017-10-27T00:08:13.432Z,0.00
2017-10-27T00:08:52.445Z,0.00
2017-10-27T00:09:52.483Z,0.00
2017-10-27T00:10:52.527Z,0.00
2017-10-27T00:11:52.554Z,0.00
2017-10-27T00:12:52.589Z,0.00
2017-10-27T00:14:13.643Z,0.00
2017-10-27T00:14:52.660Z,0.00
2017-10-27T00:15:52.694Z,0.00
2017-10-27T00:16:52.728Z,0.00
2017-10-27T00:17:52.767Z,0.00
2017-10-27T00:18:52.804Z,0.00
2017-10-27T00:20:13.863Z,0.00
2017-10-27T00:20:52.871Z,0.00
2017-10-27T00:21:52.912Z,0.00
2017-10-27T00:22:52.944Z,0.00
2017-10-27T00:23:52.983Z,0.00
2017-10-27T00:24:53.016Z,0.00
2017-10-27T00:26:14.078Z,0.00
2017-10-27T00:26:53.089Z,0.00
2017-10-27T00:27:53.127Z,0.00
2017-10-27T00:28:53.158Z,0.00
2017-10-27T00:29:53.195Z,0.00
2017-10-27T00:30:53.230Z,0.00
2017-10-27T00:32:14.289Z,0.00
2017-10-27T00:32:53.300Z,0.00
2017-10-27T00:33:53.338Z,0.00
2017-10-27T00:34:53.386Z,0.00
2017-10-27T00:35:53.411Z,0.00
2017-10-27T00:36:53.444Z,0.00
2017-10-27T00:38:14.504Z,0.00
2017-10-27T00:38:53.518Z,0.00
2017-10-27T00:39:53.552Z,0.00
2017-10-27T00:40:53.591Z,0.00
2017-10-27T00:41:53.623Z,0.00
2017-10-27T00:42:53.659Z,0.00
2017-10-27T00:44:14.714Z,0.00
2017-10-27T00:44:53.729Z,0.00
2017-10-27T00:45:53.766Z,0.00
2017-10-27T00:46:53.803Z,0.00
2017-10-27T00:47:53.840Z,0.00
2017-10-27T00:48:53.881Z,0.00
2017-10-27T00:50:14.930Z,0.00
2017-10-27T00:50:53.943Z,0.00
2017-10-27T00:51:53.980Z,0.00
2017-10-27T00:52:54.022Z,0.00
2017-10-27T00:53:54.055Z,0.00
2017-10-27T00:54:54.089Z,0.00
2017-10-27T00:56:15.150Z,0.00
2017-10-27T00:56:54.156Z,0.00
2017-10-27T00:57:54.201Z,0.00
2017-10-27T00:58:54.230Z,0.00
2017-10-27T00:59:54.266Z,0.00
2017-10-27T01:00:54.313Z,0.00
2017-10-27T01:02:15.366Z,0.00
2017-10-27T01:02:54.371Z,0.00
2017-10-27T01:03:55.099Z,0.00
2017-10-27T01:04:54.440Z,0.00
2017-10-27T01:05:54.482Z,0.00
2017-10-27T01:06:54.514Z,0.00
2017-10-27T01:08:15.572Z,0.00
2017-10-27T01:08:54.589Z,0.00
2017-10-27T01:09:54.625Z,0.00
2017-10-27T01:10:54.654Z,0.00
2017-10-27T01:11:54.695Z,0.00
2017-10-27T01:12:54.725Z,0.00
2017-10-27T01:14:15.784Z,0.00
2017-10-27T01:14:54.798Z,0.00
2017-10-27T01:15:54.833Z,0.00
2017-10-27T01:16:54.867Z,0.00
2017-10-27T01:17:54.913Z,0.00
2017-10-27T01:18:54.937Z,0.00
2017-10-27T01:20:15.994Z,0.00
2017-10-27T01:20:55.008Z,0.00
2017-10-27T01:21:55.045Z,0.00
2017-10-27T01:22:55.081Z,0.00
2017-10-27T01:23:55.114Z,0.00
2017-10-27T01:24:55.147Z,0.00
2017-10-27T01:26:16.207Z,0.00
2017-10-27T01:26:55.218Z,0.00
2017-10-27T01:27:55.260Z,0.00
2017-10-27T01:28:55.295Z,0.00
2017-10-27T01:29:55.327Z,0.00
2017-10-27T01:30:55.368Z,0.00
2017-10-27T01:32:16.414Z,0.00
2017-10-27T01:32:55.429Z,0.00
2017-10-27T01:33:55.469Z,0.00
2017-10-27T01:34:55.500Z,0.00
2017-10-27T01:35:55.537Z,0.00
2017-10-27T01:36:55.573Z,0.00
2017-10-27T01:38:16.625Z,0.00
2017-10-27T01:38:55.638Z,0.00
2017-10-27T01:39:55.677Z,0.00
2017-10-27T01:40:55.709Z,0.00
2017-10-27T01:41:55.744Z,0.00
2017-10-27T01:42:55.785Z,0.00
2017-10-27T01:44:16.834Z,0.00
2017-10-27T01:44:55.848Z,0.00
2017-10-27T01:45:55.880Z,0.00
2017-10-27T01:46:55.917Z,0.00
2017-10-27T01:47:55.955Z,0.00
2017-10-27T01:48:55.999Z,0.00
2017-10-27T01:50:17.045Z,0.00
2017-10-27T01:50:56.054Z,0.00
2017-10-27T01:51:56.091Z,0.00
2017-10-27T01:52:56.124Z,0.00
2017-10-27T01:53:56.164Z,0.00
2017-10-27T01:54:56.204Z,0.00
2017-10-27T01:56:17.255Z,0.00
2017-10-27T01:56:56.272Z,0.00
2017-10-27T01:57:56.310Z,0.00
2017-10-27T01:58:56.335Z,0.00
2017-10-27T01:59:56.371Z,0.00
2017-10-27T02:00:56.403Z,0.00
2017-10-27T02:02:17.462Z,0.00
2017-10-27T02:02:56.475Z,0.00
2017-10-27T02:03:56.509Z,0.00
2017-10-27T02:04:56.543Z,0.00
2017-10-27T02:05:56.581Z,0.00
2017-10-27T02:06:56.625Z,0.00
2017-10-27T02:08:17.664Z,0.00
2017-10-27T02:08:56.679Z,0.00
2017-10-27T02:09:56.716Z,0.00
2017-10-27T02:10:56.752Z,0.00
2017-10-27T02:11:56.787Z,0.00
2017-10-27T02:12:56.814Z,0.00
2017-10-27T02:14:17.872Z,0.00
2017-10-27T02:14:56.899Z,0.00
2017-10-27T02:15:56.928Z,0.00
2017-10-27T02:16:56.964Z,0.00
2017-10-27T02:17:56.991Z,0.00
2017-10-27T02:18:57.023Z,0.00
2017-10-27T02:20:18.079Z,0.00
2017-10-27T02:20:57.093Z,0.00
2017-10-27T02:21:57.135Z,0.00
2017-10-27T02:22:57.165Z,0.00
2017-10-27T02:23:57.206Z,0.00
2017-10-27T02:24:57.234Z,0.00
2017-10-27T02:26:18.288Z,0.00
2017-10-27T02:26:57.308Z,0.00
2017-10-27T02:27:57.337Z,0.00
2017-10-27T02:28:57.376Z,0.00
2017-10-27T02:29:57.404Z,0.00
2017-10-27T02:30:57.439Z,0.00
2017-10-27T02:32:18.491Z,0.00
2017-10-27T02:32:57.506Z,0.00
2017-10-27T02:33:57.540Z,0.00
2017-10-27T02:34:57.576Z,0.00
2017-10-27T02:35:57.623Z,0.00
2017-10-27T02:36:57.645Z,0.00
2017-10-27T02:38:18.707Z,0.00
2017-10-27T02:38:57.714Z,0.00
2017-10-27T02:39:57.749Z,0.00
2017-10-27T02:40:57.779Z,0.00
2017-10-27T02:41:57.814Z,0.00
2017-10-27T02:42:57.849Z,0.00
2017-10-27T02:44:18.905Z,0.00
2017-10-27T02:44:57.918Z,0.00
2017-10-27T02:45:57.962Z,0.00
2017-10-27T02:46:57.985Z,0.00
2017-10-27T02:47:58.021Z,0.00
2017-10-27T02:48:58.059Z,0.00
2017-10-27T02:50:19.113Z,0.00
2017-10-27T02:50:58.129Z,0.00
2017-10-27T02:51:58.158Z,0.00
2017-10-27T02:52:58.192Z,0.00
2017-10-27T02:53:58.227Z,0.00
2017-10-27T02:54:58.265Z,0.00
2017-10-27T02:56:19.316Z,0.00
2017-10-27T02:56:58.330Z,0.00
2017-10-27T02:57:58.369Z,0.00
2017-10-27T02:58:58.400Z,0.00
2017-10-27T02:59:58.431Z,0.00
2017-10-27T03:00:58.465Z,0.00
2017-10-27T03:02:19.524Z,0.00
2017-10-27T03:02:58.537Z,0.00
2017-10-27T03:03:58.570Z,0.00
2017-10-27T03:04:58.607Z,0.00
2017-10-27T03:05:58.638Z,0.00
2017-10-27T03:06:58.673Z,0.00
2017-10-27T03:08:19.726Z,0.00
2017-10-27T03:08:58.743Z,0.00
2017-10-27T03:09:58.779Z,0.00
2017-10-27T03:10:58.810Z,0.00
2017-10-27T03:11:58.865Z,0.00
2017-10-27T03:12:58.885Z,0.00
2017-10-27T03:14:19.936Z,0.00
2017-10-27T03:14:58.949Z,0.00
2017-10-27T03:15:58.979Z,0.00
2017-10-27T03:16:59.018Z,0.00
2017-10-27T03:17:59.049Z,0.00
2017-10-27T03:18:59.084Z,0.00
2017-10-27T03:20:20.144Z,0.00
2017-10-27T03:20:59.149Z,0.00
2017-10-27T03:21:59.186Z,0.00
2017-10-27T03:22:59.227Z,0.00
2017-10-27T03:23:59.259Z,0.00
2017-10-27T03:24:59.300Z,0.00
2017-10-27T03:26:20.349Z,0.00
2017-10-27T03:26:59.357Z,0.00
2017-10-27T03:27:59.393Z,0.00
2017-10-27T03:28:59.423Z,0.00
2017-10-27T03:29:59.458Z,0.00
2017-10-27T03:30:59.497Z,0.00
2017-10-27T03:32:20.549Z,0.00
2017-10-27T03:32:59.563Z,0.00
2017-10-27T03:33:59.595Z,0.00
2017-10-27T03:34:59.636Z,0.00
2017-10-27T03:35:59.661Z,0.00
2017-10-27T03:36:59.694Z,0.00
2017-10-27T03:38:20.753Z,0.00
2017-10-27T03:38:59.764Z,0.00
2017-10-27T03:39:59.805Z,0.00
2017-10-27T03:40:59.842Z,0.00
2017-10-27T03:41:59.865Z,0.00
2017-10-27T03:42:59.898Z,0.00
2017-10-27T03:44:20.954Z,0.00
2017-10-27T03:44:59.968Z,0.00
2017-10-27T03:46:00.002Z,0.00
2017-10-27T03:47:00.033Z,0.00
2017-10-27T03:48:00.065Z,0.00
2017-10-27T03:49:00.099Z,0.00
2017-10-27T03:50:21.153Z,0.00
2017-10-27T03:51:00.165Z,0.00
2017-10-27T03:52:00.202Z,0.00
2017-10-27T03:53:00.239Z,0.00
2017-10-27T03:54:00.268Z,0.00
2017-10-27T03:55:00.300Z,0.00
2017-10-27T03:56:21.354Z,0.00
2017-10-27T03:57:00.362Z,0.00
2017-10-27T03:58:00.397Z,0.00
2017-10-27T03:59:00.432Z,0.00
2017-10-27T04:00:00.472Z,0.00
2017-10-27T04:01:00.494Z,0.00
2017-10-27T04:02:21.552Z,0.00
2017-10-27T04:03:00.570Z,0.00
2017-10-27T04:04:00.601Z,0.00
2017-10-27T04:05:00.628Z,0.00
2017-10-27T04:06:00.662Z,0.00
2017-10-27T04:07:00.694Z,0.00
2017-10-27T04:08:21.750Z,0.00
2017-10-27T04:09:00.760Z,0.00
2017-10-27T04:10:00.796Z,0.00
2017-10-27T04:11:00.825Z,0.00
2017-10-27T04:12:00.860Z,0.00
2017-10-27T04:13:00.897Z,0.00
2017-10-27T04:14:21.953Z,0.00
2017-10-27T04:15:00.958Z,0.00
2017-10-27T04:16:00.994Z,0.00
2017-10-27T04:17:01.022Z,0.00
2017-10-27T04:18:01.062Z,0.00
2017-10-27T04:19:01.095Z,0.00
2017-10-27T04:20:22.146Z,0.00
2017-10-27T04:21:01.158Z,0.00
2017-10-27T04:22:01.188Z,0.00
2017-10-27T04:23:01.222Z,0.00
2017-10-27T04:24:01.270Z,0.00
2017-10-27T04:25:01.297Z,0.00
2017-10-27T04:26:22.349Z,0.00
2017-10-27T04:27:01.353Z,0.00
2017-10-27T04:28:01.392Z,0.00
2017-10-27T04:29:01.432Z,0.00
2017-10-27T04:30:01.459Z,0.00
2017-10-27T04:31:01.492Z,0.00
2017-10-27T04:32:22.539Z,0.00
2017-10-27T04:33:01.553Z,0.00
2017-10-27T04:34:01.586Z,0.00
2017-10-27T04:35:01.629Z,0.00
2017-10-27T04:36:01.651Z,0.00
2017-10-27T04:37:01.689Z,0.00
2017-10-27T04:38:22.747Z,0.00
2017-10-27T04:39:01.756Z,0.00
2017-10-27T04:40:01.786Z,0.00
2017-10-27T04:41:01.822Z,4.00
2017-10-27T04:42:01.917Z,4.00
2017-10-27T04:43:01.928Z,4.00
2017-10-27T04:44:22.966Z,4.00
2017-10-27T04:45:01.991Z,4.00
2017-10-27T04:46:02.004Z,4.00
2017-10-27T04:47:02.031Z,4.00
2017-10-27T04:48:02.075Z,4.00
2017-10-27T04:49:02.104Z,4.00
2017-10-27T04:50:23.146Z,4.00
2017-10-27T04:51:02.157Z,4.00
2017-10-27T04:52:02.187Z,4.00
2017-10-27T04:53:02.216Z,4.00
2017-10-27T04:54:02.299Z,4.00
2017-10-27T04:55:02.283Z,4.00
2017-10-27T04:56:23.373Z,4.00
2017-10-27T04:57:02.354Z,4.00
2017-10-27T04:58:02.382Z,0.00
2017-10-27T04:59:02.416Z,0.00
2017-10-27T05:00:02.449Z,0.00
2017-10-27T05:01:02.482Z,0.00
2017-10-27T05:02:23.541Z,0.00
2017-10-27T05:03:02.552Z,0.00
2017-10-27T05:04:02.580Z,0.00
2017-10-27T05:05:02.615Z,0.00
2017-10-27T05:06:02.649Z,0.00
2017-10-27T05:07:02.688Z,0.00
2017-10-27T05:08:23.738Z,0.00
2017-10-27T05:09:02.748Z,0.00
2017-10-27T05:10:02.783Z,0.00
2017-10-27T05:11:02.819Z,0.00
2017-10-27T05:12:02.850Z,0.00
2017-10-27T05:13:02.940Z,0.00
2017-10-27T05:14:23.963Z,0.00
2017-10-27T05:15:02.953Z,0.00
2017-10-27T05:16:02.985Z,0.00
2017-10-27T05:17:03.011Z,0.00
2017-10-27T05:18:03.127Z,0.00
2017-10-27T05:19:04.016Z,0.00
2017-10-27T05:20:24.135Z,0.00
2017-10-27T05:21:03.146Z,0.00
2017-10-27T05:22:03.178Z,0.00
2017-10-27T05:23:03.211Z,0.00
2017-10-27T05:24:03.252Z,0.00
2017-10-27T05:25:03.276Z,0.00
2017-10-27T05:26:24.350Z,0.00
2017-10-27T05:27:03.349Z,0.00
2017-10-27T05:28:03.385Z,0.00
2017-10-27T05:29:03.416Z,0.00
2017-10-27T05:30:03.449Z,0.00
2017-10-27T05:31:03.479Z,0.00
2017-10-27T05:32:24.558Z,0.00
2017-10-27T05:33:03.550Z,0.00
2017-10-27T05:34:03.586Z,0.00
2017-10-27T05:35:03.659Z,0.00
2017-10-27T05:36:03.644Z,4.00
2017-10-27T05:37:03.678Z,4.00
2017-10-27T05:38:24.761Z,4.00
2017-10-27T05:39:03.747Z,4.00
2017-10-27T05:40:03.781Z,4.00
2017-10-27T05:41:03.812Z,8.00
2017-10-27T05:42:03.845Z,4.00
2017-10-27T05:43:03.907Z,8.00
2017-10-27T05:44:24.927Z,12.00
2017-10-27T05:45:03.942Z,8.00
2017-10-27T05:46:03.984Z,12.00
2017-10-27T05:47:04.016Z,16.00
2017-10-27T05:48:04.043Z,16.00
2017-10-27T05:49:04.075Z,16.00
2017-10-27T05:50:25.135Z,20.00
2017-10-27T05:51:04.145Z,24.00
2017-10-27T05:52:04.176Z,20.00
2017-10-27T05:53:04.209Z,16.00
2017-10-27T05:54:04.247Z,24.00
2017-10-27T05:55:04.295Z,20.00
2017-10-27T05:56:25.339Z,16.00
2017-10-27T05:57:04.346Z,16.00
2017-10-27T05:58:04.374Z,8.00
2017-10-27T05:59:04.411Z,8.00
2017-10-27T06:00:05.375Z,8.00
2017-10-27T06:01:04.480Z,12.00
2017-10-27T06:02:26.425Z,8.00
2017-10-27T06:03:04.540Z,8.00
2017-10-27T06:04:04.574Z,8.00
2017-10-27T06:05:04.610Z,8.00
2017-10-27T06:06:04.649Z,8.00
2017-10-27T06:07:04.695Z,8.00
2017-10-27T06:08:26.000Z,8.00
2017-10-27T06:09:04.743Z,8.00
2017-10-27T06:10:05.148Z,8.00
2017-10-27T06:11:04.809Z,12.00
2017-10-27T06:12:04.853Z,16.00
2017-10-27T06:13:04.875Z,16.00
2017-10-27T06:14:25.929Z,20.00
2017-10-27T06:15:04.942Z,24.00
2017-10-27T06:16:04.978Z,28.00
2017-10-27T06:17:05.011Z,28.00
2017-10-27T06:18:05.045Z,24.00
2017-10-27T06:19:05.075Z,24.00
2017-10-27T06:20:26.125Z,20.00
2017-10-27T06:21:05.140Z,32.00
2017-10-27T06:22:05.179Z,44.00
2017-10-27T06:23:05.209Z,76.00
2017-10-27T06:24:05.249Z,100.00
2017-10-27T06:25:05.276Z,92.00
2017-10-27T06:26:26.331Z,100.00
2017-10-27T06:27:05.383Z,100.00
2017-10-27T06:28:05.373Z,84.00
2017-10-27T06:29:05.411Z,84.00
2017-10-27T06:30:05.440Z,124.00
2017-10-27T06:31:05.569Z,156.00
2017-10-27T06:32:26.843Z,188.00
2017-10-27T06:33:05.708Z,212.00
2017-10-27T06:34:05.785Z,292.00
2017-10-27T06:35:05.716Z,364.00
2017-10-27T06:36:05.842Z,408.00
2017-10-27T06:37:05.825Z,436.00
2017-10-27T06:38:26.944Z,420.00
2017-10-27T06:39:05.886Z,436.00
2017-10-27T06:40:05.935Z,436.00
2017-10-27T06:41:05.989Z,416.00
2017-10-27T06:42:06.001Z,380.00
2017-10-27T06:43:06.332Z,348.00
2017-10-27T06:44:27.086Z,344.00
2017-10-27T06:45:06.179Z,372.00
2017-10-27T06:46:06.256Z,352.00
2017-10-27T06:47:06.297Z,244.00
2017-10-27T06:48:06.467Z,140.00
2017-10-27T06:49:06.331Z,108.00
2017-10-27T06:50:27.561Z,112.00
2017-10-27T06:51:06.479Z,88.00
2017-10-27T06:52:06.513Z,108.00
2017-10-27T06:53:06.530Z,96.00
2017-10-27T06:54:06.645Z,112.00
2017-10-27T06:55:06.586Z,76.00
2017-10-27T06:56:27.598Z,124.00
2017-10-27T06:57:06.667Z,208.00
2017-10-27T06:58:06.958Z,324.00
2017-10-27T06:59:06.676Z,292.00
2017-10-27T07:00:08.011Z,248.00
2017-10-27T07:01:06.694Z,208.00
2017-10-27T07:02:27.698Z,264.00
2017-10-27T07:03:06.748Z,356.00
2017-10-27T07:04:06.736Z,452.00
2017-10-27T07:05:06.853Z,464.00
2017-10-27T07:06:06.895Z,572.00
2017-10-27T07:07:06.677Z,824.00
2017-10-27T07:08:27.725Z,824.00
2017-10-27T07:09:06.742Z,380.00
2017-10-27T07:10:06.775Z,240.00
2017-10-27T07:11:06.834Z,236.00
2017-10-27T07:12:06.846Z,216.00
2017-10-27T07:13:06.874Z,204.00
2017-10-27T07:14:28.058Z,296.00
2017-10-27T07:15:07.094Z,320.00
2017-10-27T07:16:07.180Z,416.00
2017-10-27T07:17:07.204Z,524.00
2017-10-27T07:18:08.006Z,576.00
2017-10-27T07:19:07.274Z,804.00
2017-10-27T07:20:28.270Z,960.00
2017-10-27T07:21:07.356Z,1024.00
2017-10-27T07:22:07.327Z,1064.00
2017-10-27T07:23:07.375Z,764.00
2017-10-27T07:24:07.504Z,652.00
2017-10-27T07:25:07.625Z,628.00
2017-10-27T07:26:28.558Z,560.00
2017-10-27T07:27:07.739Z,596.00
2017-10-27T07:28:07.622Z,472.00
2017-10-27T07:29:07.737Z,356.00
2017-10-27T07:30:07.719Z,328.00
2017-10-27T07:31:08.598Z,424.00
2017-10-27T07:32:28.755Z,484.00
2017-10-27T07:33:07.809Z,560.00
2017-10-27T07:34:07.780Z,444.00
2017-10-27T07:35:07.974Z,536.00
2017-10-27T07:36:07.995Z,608.00
2017-10-27T07:37:08.594Z,788.00
2017-10-27T07:38:29.119Z,592.00
2017-10-27T07:39:08.114Z,608.00
2017-10-27T07:40:08.145Z,456.00
2017-10-27T07:41:08.108Z,404.00
2017-10-27T07:42:08.197Z,212.00
2017-10-27T07:43:08.211Z,148.00
2017-10-27T07:44:29.149Z,116.00
2017-10-27T07:45:08.216Z,112.00
2017-10-27T07:46:08.197Z,76.00
2017-10-27T07:47:08.232Z,76.00
2017-10-27T07:48:09.047Z,80.00
2017-10-27T07:49:08.278Z,92.00
2017-10-27T07:50:29.392Z,124.00
2017-10-27T07:51:08.334Z,180.00
2017-10-27T07:52:08.407Z,304.00
2017-10-27T07:53:09.166Z,404.00
2017-10-27T07:54:09.550Z,504.00
2017-10-27T07:55:08.480Z,668.00
2017-10-27T07:56:29.600Z,820.00
2017-10-27T08:12:51.732Z,2072.00
2017-10-27T08:13:51.239Z,2136.00
2017-10-27T08:14:52.114Z,1476.00
2017-10-27T08:15:51.415Z,1088.00
2017-10-27T08:16:51.514Z,1008.00
2017-10-27T08:17:51.449Z,1224.00
2017-10-27T08:18:51.548Z,1524.00
2017-10-27T08:19:51.448Z,1916.00
2017-10-27T08:20:51.731Z,1808.00
2017-10-27T08:21:51.560Z,2140.00
2017-10-27T08:22:51.545Z,2488.00
2017-10-27T08:23:52.588Z,2612.00
2017-10-27T08:24:51.651Z,2036.00
2017-10-27T08:25:51.804Z,1584.00
2017-10-27T08:26:51.824Z,1028.00
2017-10-27T08:27:51.793Z,956.00
2017-10-27T08:28:51.763Z,868.00
2017-10-27T08:29:51.789Z,724.00
2017-10-27T08:30:51.872Z,780.00
2017-10-27T08:31:51.875Z,756.00
2017-10-27T08:32:51.911Z,756.00
2017-10-27T08:33:51.938Z,836.00
2017-10-27T08:34:52.566Z,920.00
2017-10-27T08:35:52.006Z,1232.00
2017-10-27T08:36:52.046Z,2860.00
2017-10-27T08:37:52.122Z,2012.00
2017-10-27T08:38:52.113Z,2332.00
2017-10-27T08:39:52.105Z,2292.00
2017-10-27T08:40:52.121Z,2060.00
2017-10-27T08:41:51.981Z,2712.00
2017-10-27T08:42:52.232Z,4404.00
2017-10-27T08:43:52.220Z,5000.00
2017-10-27T08:44:52.168Z,4776.00
2017-10-27T08:45:52.083Z,5544.00
2017-10-27T08:46:52.323Z,6652.00
2017-10-27T08:47:52.281Z,5236.00
2017-10-27T08:48:52.362Z,4688.00
2017-10-27T08:49:52.398Z,4272.00
2017-10-27T08:50:52.409Z,3248.00
2017-10-27T08:51:52.485Z,2452.00
2017-10-27T08:52:52.471Z,1132.00
2017-10-27T08:53:52.575Z,796.00
2017-10-27T08:54:52.573Z,544.00
2017-10-27T08:55:52.970Z,800.00
2017-10-27T08:56:52.682Z,1180.00
2017-10-27T08:57:52.478Z,1080.00
2017-10-27T08:58:52.522Z,1300.00
2017-10-27T08:59:52.546Z,1220.00
2017-10-27T09:00:52.580Z,860.00
2017-10-27T09:01:52.617Z,1364.00
2017-10-27T09:02:52.651Z,1104.00
2017-10-27T09:03:52.684Z,1920.00
2017-10-27T09:04:52.727Z,2592.00
2017-10-27T09:05:52.755Z,2372.00
2017-10-27T09:06:52.781Z,1400.00
2017-10-27T09:07:52.821Z,1120.00
2017-10-27T09:08:52.847Z,1056.00
2017-10-27T09:09:52.877Z,1196.00
2017-10-27T09:10:52.913Z,2232.00
2017-10-27T09:11:52.951Z,3504.00
2017-10-27T09:12:52.986Z,3080.00
2017-10-27T09:13:53.015Z,2616.00
2017-10-27T09:14:53.047Z,1940.00
2017-10-27T09:15:53.075Z,1560.00
2017-10-27T09:16:53.110Z,1512.00
2017-10-27T09:17:53.139Z,1676.00
2017-10-27T09:18:53.289Z,2540.00
2017-10-27T09:19:53.223Z,3756.00
2017-10-27T09:20:53.327Z,5016.00
2017-10-27T09:21:53.339Z,4544.00
2017-10-27T09:22:53.412Z,3176.00
2017-10-27T09:23:53.475Z,2464.00
2017-10-27T09:24:53.372Z,1868.00
2017-10-27T09:25:53.407Z,1388.00
2017-10-27T09:26:53.525Z,1544.00
2017-10-27T09:27:53.585Z,1976.00
2017-10-27T09:28:53.573Z,2856.00
2017-10-27T09:29:53.538Z,2944.00
2017-10-27T09:30:53.568Z,2264.00
2017-10-27T09:31:53.601Z,2160.00
2017-10-27T09:32:53.633Z,3084.00
2017-10-27T09:33:53.671Z,2164.00
2017-10-27T09:34:53.700Z,1556.00
2017-10-27T09:35:53.734Z,2204.00
2017-10-27T09:36:53.775Z,2820.00
2017-10-27T09:37:53.803Z,1576.00
2017-10-27T09:38:53.919Z,1632.00
2017-10-27T09:39:53.869Z,1564.00
2017-10-27T09:40:53.899Z,1688.00
2017-10-27T09:41:53.936Z,2156.00
2017-10-27T09:42:53.970Z,1760.00
2017-10-27T09:43:53.999Z,2200.00
2017-10-27T09:44:54.032Z,2624.00
2017-10-27T09:45:54.066Z,2664.00
2017-10-27T09:46:54.097Z,2204.00
2017-10-27T09:47:54.134Z,1792.00
2017-10-27T09:48:54.166Z,1900.00
2017-10-27T09:49:54.201Z,1632.00
2017-10-27T09:50:54.229Z,2080.00
2017-10-27T09:51:54.303Z,1964.00
2017-10-27T09:52:54.293Z,1968.00
2017-10-27T09:53:54.326Z,1844.00
2017-10-27T09:54:54.357Z,2248.00
2017-10-27T09:55:54.393Z,2208.00
2017-10-27T09:56:54.443Z,2492.00
2017-10-27T09:57:54.481Z,3468.00
2017-10-27T09:58:54.507Z,2328.00
2017-10-27T09:59:54.543Z,3244.00
2017-10-27T10:00:54.563Z,3364.00
2017-10-27T10:01:54.595Z,3900.00
2017-10-27T10:02:54.628Z,3856.00
2017-10-27T10:03:54.661Z,3748.00
2017-10-27T10:04:54.694Z,2568.00
2017-10-27T10:05:54.725Z,2388.00
2017-10-27T10:06:54.764Z,1976.00
2017-10-27T10:07:54.814Z,2868.00
2017-10-27T10:08:54.832Z,3168.00
2017-10-27T10:09:54.861Z,4492.00
2017-10-27T10:10:54.899Z,4692.00
2017-10-27T10:11:54.925Z,4368.00
2017-10-27T10:12:54.970Z,4324.00
2017-10-27T10:13:54.999Z,3252.00
2017-10-27T10:14:55.025Z,3548.00
2017-10-27T10:15:55.060Z,4044.00
2017-10-27T10:16:55.096Z,4168.00
2017-10-27T10:17:55.142Z,4296.00
2017-10-27T10:18:55.239Z,2708.00
2017-10-27T10:19:55.200Z,3004.00
2017-10-27T10:20:55.228Z,2604.00
2017-10-27T10:21:55.260Z,2692.00
2017-10-27T10:22:55.296Z,3224.00
2017-10-27T10:23:55.330Z,4036.00
2017-10-27T10:24:55.362Z,3628.00
2017-10-27T10:25:55.411Z,3736.00
2017-10-27T10:26:55.440Z,3292.00
2017-10-27T10:27:55.469Z,3200.00
2017-10-27T10:28:55.502Z,2716.00
2017-10-27T10:29:55.534Z,2476.00
2017-10-27T10:30:55.570Z,2100.00
2017-10-27T10:31:55.612Z,1948.00
2017-10-27T10:32:55.637Z,2476.00
2017-10-27T10:33:55.670Z,2592.00
2017-10-27T10:34:55.724Z,2588.00
2017-10-27T10:35:55.740Z,2884.00
2017-10-27T10:36:55.782Z,2364.00
2017-10-27T10:37:55.807Z,2532.00
2017-10-27T10:38:55.855Z,2136.00
2017-10-27T10:39:55.876Z,3132.00
2017-10-27T10:40:55.914Z,2876.00
2017-10-27T10:41:55.944Z,3812.00
2017-10-27T10:42:55.974Z,4028.00
2017-10-27T10:43:56.009Z,3352.00
2017-10-27T10:44:56.044Z,3040.00
2017-10-27T10:45:56.073Z,1884.00
2017-10-27T10:46:56.112Z,2000.00
2017-10-27T10:47:56.155Z,3188.00
2017-10-27T10:48:56.177Z,3060.00
2017-10-27T10:49:56.208Z,3488.00
2017-10-27T10:50:56.251Z,5016.00
2017-10-27T10:51:56.278Z,4900.00
2017-10-27T10:52:56.310Z,5052.00
2017-10-27T10:53:56.345Z,4572.00
2017-10-27T10:54:56.382Z,2704.00
2017-10-27T10:55:56.440Z,1304.00
2017-10-27T10:56:56.449Z,1064.00
2017-10-27T10:57:56.493Z,948.00
2017-10-27T10:58:56.515Z,1280.00
2017-10-27T10:59:56.556Z,1676.00
2017-10-27T11:00:56.585Z,1628.00
2017-10-27T11:01:56.635Z,1120.00
2017-10-27T11:02:56.662Z,1988.00
2017-10-27T11:03:56.694Z,2312.00
2017-10-27T11:04:56.731Z,1704.00
2017-10-27T11:05:56.756Z,1892.00
2017-10-27T11:06:56.789Z,2504.00
2017-10-27T11:07:56.829Z,2924.00
2017-10-27T11:08:56.856Z,2600.00
2017-10-27T11:09:56.901Z,2036.00
2017-10-27T11:10:56.926Z,1236.00
2017-10-27T11:11:56.958Z,932.00
2017-10-27T11:12:56.992Z,1056.00
2017-10-27T11:13:57.031Z,1228.00
2017-10-27T11:14:57.061Z,880.00
2017-10-27T11:15:57.096Z,668.00
2017-10-27T11:16:57.129Z,1080.00
2017-10-27T11:17:57.190Z,1320.00
2017-10-27T11:18:57.212Z,1192.00
2017-10-27T11:19:57.242Z,1548.00
2017-10-27T11:20:57.264Z,2580.00
2017-10-27T11:21:57.299Z,3244.00
2017-10-27T11:22:57.344Z,2960.00
2017-10-27T11:23:57.376Z,3524.00
2017-10-27T11:24:57.401Z,3420.00
2017-10-27T11:25:57.459Z,2628.00
2017-10-27T11:26:57.496Z,2320.00
2017-10-27T11:27:57.501Z,2528.00
2017-10-27T11:28:57.535Z,2360.00
2017-10-27T11:29:57.580Z,3044.00
2017-10-27T11:30:57.603Z,2808.00
2017-10-27T11:31:57.647Z,3656.00
2017-10-27T11:32:57.676Z,3540.00
2017-10-27T11:33:57.707Z,2492.00
2017-10-27T11:34:57.757Z,2896.00
2017-10-27T11:35:57.803Z,2780.00
2017-10-27T11:36:57.843Z,1516.00
2017-10-27T11:37:57.845Z,2196.00
2017-10-27T11:38:57.875Z,2316.00
2017-10-27T11:39:57.918Z,2596.00
2017-10-27T11:40:57.945Z,2916.00
2017-10-27T11:41:57.981Z,2600.00
2017-10-27T11:42:58.010Z,2356.00
2017-10-27T11:43:58.043Z,2148.00
2017-10-27T11:44:58.080Z,1616.00
2017-10-27T11:45:58.110Z,1360.00
2017-10-27T11:46:58.144Z,820.00
2017-10-27T11:47:58.182Z,1456.00
2017-10-27T11:48:58.230Z,1476.00
2017-10-27T11:49:58.253Z,1852.00
2017-10-27T11:51:58.360Z,3032.00
2017-10-27T11:52:58.666Z,3908.00
2017-10-27T11:53:59.922Z,3584.00
2017-10-27T11:54:58.638Z,3068.00
2017-10-27T11:55:59.007Z,2748.00
2017-10-27T11:56:58.548Z,3328.00
2017-10-27T11:58:19.616Z,3880.00
2017-10-27T11:58:58.612Z,2996.00
2017-10-27T11:59:58.653Z,2800.00
2017-10-27T12:00:58.696Z,3192.00
2017-10-27T12:01:58.728Z,3544.00
2017-10-27T12:02:58.755Z,3792.00
2017-10-27T12:04:19.805Z,3548.00
2017-10-27T12:04:58.826Z,3704.00
2017-10-27T12:05:58.850Z,3984.00
2017-10-27T12:06:58.913Z,3832.00
2017-10-27T12:07:58.925Z,2844.00
2017-10-27T12:08:58.938Z,3452.00
2017-10-27T12:10:20.027Z,4200.00
2017-10-27T12:10:59.006Z,3408.00
2017-10-27T12:11:59.038Z,2412.00
2017-10-27T12:12:59.072Z,2260.00
2017-10-27T12:13:59.110Z,2392.00
2017-10-27T12:14:59.145Z,1812.00
2017-10-27T12:16:20.223Z,1652.00
2017-10-27T12:16:59.211Z,1944.00
2017-10-27T12:17:59.258Z,2768.00
2017-10-27T12:18:59.288Z,2712.00
2017-10-27T12:19:59.313Z,2656.00
2017-10-27T12:20:59.358Z,2308.00
2017-10-27T12:22:20.399Z,3640.00
2017-10-27T12:22:59.420Z,2472.00
2017-10-27T12:23:59.454Z,3172.00
2017-10-27T12:24:59.646Z,3004.00
2017-10-27T12:25:59.517Z,2708.00
2017-10-27T12:26:59.559Z,2248.00
2017-10-27T12:28:20.665Z,2548.00
2017-10-27T12:28:59.628Z,3008.00
2017-10-27T12:29:59.854Z,3584.00
2017-10-27T12:30:59.692Z,3500.00
2017-10-27T12:31:59.943Z,2784.00
2017-10-27T12:33:00.081Z,3776.00
2017-10-27T12:34:20.806Z,3424.00
2017-10-27T12:34:59.857Z,2576.00
2017-10-27T12:35:59.883Z,1712.00
2017-10-27T12:36:59.889Z,1752.00
2017-10-27T12:37:59.942Z,2100.00
2017-10-27T12:39:00.009Z,2820.00
2017-10-27T12:40:21.033Z,3064.00
2017-10-27T12:41:00.195Z,2560.00
2017-10-27T12:42:00.071Z,2764.00
2017-10-27T12:43:00.108Z,3332.00
2017-10-27T12:44:00.142Z,3260.00
2017-10-27T12:45:00.190Z,2100.00
2017-10-27T12:46:21.232Z,1700.00
2017-10-27T12:47:00.260Z,1516.00
2017-10-27T12:48:00.456Z,1520.00
2017-10-27T12:49:00.363Z,812.00
2017-10-27T12:50:00.351Z,792.00
2017-10-27T12:51:00.407Z,760.00
2017-10-27T12:52:21.424Z,732.00
2017-10-27T12:53:00.462Z,1028.00
2017-10-27T12:54:00.461Z,1216.00
2017-10-27T12:55:00.615Z,752.00
2017-10-27T12:56:00.541Z,1128.00
2017-10-27T12:57:00.584Z,2320.00
2017-10-27T12:58:21.724Z,2860.00
2017-10-27T12:59:00.643Z,2764.00
2017-10-27T13:00:00.674Z,3412.00
2017-10-27T13:01:00.862Z,3632.00